Hauptseite
METAR-TAF:

METAR-TAF

Flughäfen :

Militärflugplatz Nancy-Ochey

Nancy, Frankreich

Breite: 48-35N, Länge: 005-58E, Höhe: 336 m

Beobachtung

Neuester Wetterbericht von vor 37 Minuten, um 11:00 UTC
Wind 7 kt aus West/Südwest, variierte zwischen Süd und West/Nordwest
Temperatur 27°C
Luftfeuchtigkeit 48%
Luftdruck 1021 hPa
Sichtweite 10 km oder mehr
keine Wolken unter 1500 m und keine Kumulonimbus oder Gewitterwolken

METAR: LFSO 191100Z AUTO 24007KT 190V290 CAVOK 27/15 Q1021 NOSIG

Zeit: 13:37 (11:37 UTC)

Prognose

Neuester Wetterbericht von vor 1 Stunde und 37 Minuten, um 10:00 UTC
Gültige Prognose vom 19 um 10 UTC bis 20 um 09 UTC
Wind 8 kt aus West/Südwest
Sichtweite 10 km oder mehr
keine Wolken unter 1500 m und keine Kumulonimbus oder Gewitterwolken

TAF: LFSO 191000Z 1910/2009 24008KT CAVOK

Wetterbeobachtungen und Prognosen von mehr als 4000 Flughäfen (METAR und TAF Bericht).

Die verfügbaren Stationen werden durch gelbe und rote Markierungen auf der Karte dargestellt.

Führen Sie die Maus auf sie, um den Namen der Station zu sehen.

Darauf klicken, um die Beobachtung von Wetterbeobachtungen und Prognosen zu sehen.

Um die Karte zu ändern : klicken Sie auf den grünen Tasten mit einem schwarzen Kreuz Zum Vergrößern, auf den grünen Button mit einem Gedankenstrich zu verkleinern, oder auf die grünen Pfeile für benachbarte Karten.


METAR-TAF: